sensor_id;sensor_type;location;lat;lon;timestamp;temperature;humidity
27016;DHT22;14557;0.000;0.000;2022-09-03T00:00:17;23.80;66.20
27016;DHT22;14557;0.000;0.000;2022-09-03T00:02:51;23.80;66.10
27016;DHT22;14557;0.000;0.000;2022-09-03T00:05:38;23.80;66.20
27016;DHT22;14557;0.000;0.000;2022-09-03T00:11:45;23.70;66.20
27016;DHT22;14557;0.000;0.000;2022-09-03T00:17:17;23.70;66.30
27016;DHT22;14557;0.000;0.000;2022-09-03T00:19:55;23.70;66.10
27016;DHT22;14557;0.000;0.000;2022-09-03T00:22:27;23.70;66.00
27016;DHT22;14557;0.000;0.000;2022-09-03T00:24:56;23.70;65.90
27016;DHT22;14557;0.000;0.000;2022-09-03T00:27:26;23.70;66.10
27016;DHT22;14557;0.000;0.000;2022-09-03T00:30:26;23.70;65.90
27016;DHT22;14557;0.000;0.000;2022-09-03T00:32:59;23.70;66.10
27016;DHT22;14557;0.000;0.000;2022-09-03T00:36:03;23.60;66.30
27016;DHT22;14557;0.000;0.000;2022-09-03T00:38:29;23.60;66.30
27016;DHT22;14557;0.000;0.000;2022-09-03T00:46:52;23.60;66.40
27016;DHT22;14557;0.000;0.000;2022-09-03T01:00:40;23.50;66.20
27016;DHT22;14557;0.000;0.000;2022-09-03T01:03:56;23.40;66.60
27016;DHT22;14557;0.000;0.000;2022-09-03T01:06:48;23.40;66.60
27016;DHT22;14557;0.000;0.000;2022-09-03T01:12:08;23.40;66.40
27016;DHT22;14557;0.000;0.000;2022-09-03T01:17:10;23.40;66.60
27016;DHT22;14557;0.000;0.000;2022-09-03T01:22:50;23.30;66.50
27016;DHT22;14557;0.000;0.000;2022-09-03T01:30:42;23.30;66.90
27016;DHT22;14557;0.000;0.000;2022-09-03T01:39:21;23.20;66.90
27016;DHT22;14557;0.000;0.000;2022-09-03T01:42:27;23.20;66.90
27016;DHT22;14557;0.000;0.000;2022-09-03T01:50:32;23.20;66.90
27016;DHT22;14557;0.000;0.000;2022-09-03T01:58:58;23.20;66.80
27016;DHT22;14557;0.000;0.000;2022-09-03T02:02:20;23.10;66.60
27016;DHT22;14557;0.000;0.000;2022-09-03T02:04:26;23.10;66.50
27016;DHT22;14557;0.000;0.000;2022-09-03T02:06:55;23.10;66.70
27016;DHT22;14557;0.000;0.000;2022-09-03T02:09:22;23.10;66.60
27016;DHT22;14557;0.000;0.000;2022-09-03T02:12:10;23.10;66.70
27016;DHT22;14557;0.000;0.000;2022-09-03T02:14:39;23.10;66.70
27016;DHT22;14557;0.000;0.000;2022-09-03T02:17:06;23.10;66.70
27016;DHT22;14557;0.000;0.000;2022-09-03T02:19:33;23.00;66.70
27016;DHT22;14557;0.000;0.000;2022-09-03T02:22:02;23.10;66.70
27016;DHT22;14557;0.000;0.000;2022-09-03T02:24:28;23.00;66.60
27016;DHT22;14557;0.000;0.000;2022-09-03T02:26:54;23.00;66.60
27016;DHT22;14557;0.000;0.000;2022-09-03T02:29:20;23.00;66.80
27016;DHT22;14557;0.000;0.000;2022-09-03T02:31:46;23.00;66.70
27016;DHT22;14557;0.000;0.000;2022-09-03T02:34:12;23.00;66.60
27016;DHT22;14557;0.000;0.000;2022-09-03T02:36:44;23.00;67.30
27016;DHT22;14557;0.000;0.000;2022-09-03T02:39:14;23.00;66.50
27016;DHT22;14557;0.000;0.000;2022-09-03T02:41:40;23.00;66.50
27016;DHT22;14557;0.000;0.000;2022-09-03T02:44:19;22.90;66.50
27016;DHT22;14557;0.000;0.000;2022-09-03T02:46:55;22.90;66.50
27016;DHT22;14557;0.000;0.000;2022-09-03T02:49:22;22.90;66.60
27016;DHT22;14557;0.000;0.000;2022-09-03T02:51:47;22.90;66.40
27016;DHT22;14557;0.000;0.000;2022-09-03T02:54:13;22.90;66.50
27016;DHT22;14557;0.000;0.000;2022-09-03T02:56:39;22.90;66.50
27016;DHT22;14557;0.000;0.000;2022-09-03T02:59:06;22.90;66.50
27016;DHT22;14557;0.000;0.000;2022-09-03T03:01:32;22.90;66.60
27016;DHT22;14557;0.000;0.000;2022-09-03T03:03:58;22.90;66.90
27016;DHT22;14557;0.000;0.000;2022-09-03T03:06:24;22.90;66.50
27016;DHT22;14557;0.000;0.000;2022-09-03T03:08:50;22.80;66.70
27016;DHT22;14557;0.000;0.000;2022-09-03T03:11:17;22.80;66.70
27016;DHT22;14557;0.000;0.000;2022-09-03T03:13:47;22.80;66.70
27016;DHT22;14557;0.000;0.000;2022-09-03T03:16:15;22.80;66.70
27016;DHT22;14557;0.000;0.000;2022-09-03T03:18:42;22.80;66.60
27016;DHT22;14557;0.000;0.000;2022-09-03T03:21:12;22.80;66.80
27016;DHT22;14557;0.000;0.000;2022-09-03T03:23:38;22.80;66.80
27016;DHT22;14557;0.000;0.000;2022-09-03T03:26:09;22.80;66.70
27016;DHT22;14557;0.000;0.000;2022-09-03T03:28:35;22.80;66.70
27016;DHT22;14557;0.000;0.000;2022-09-03T03:31:12;22.80;66.60
27016;DHT22;14557;0.000;0.000;2022-09-03T03:33:39;22.80;66.80
27016;DHT22;14557;0.000;0.000;2022-09-03T03:36:11;22.80;66.80
27016;DHT22;14557;0.000;0.000;2022-09-03T03:38:38;22.70;66.80
27016;DHT22;14557;0.000;0.000;2022-09-03T03:41:24;22.70;66.60
27016;DHT22;14557;0.000;0.000;2022-09-03T03:43:55;22.70;66.80
27016;DHT22;14557;0.000;0.000;2022-09-03T03:46:22;22.70;66.90
27016;DHT22;14557;0.000;0.000;2022-09-03T03:48:49;22.70;66.90
27016;DHT22;14557;0.000;0.000;2022-09-03T03:51:15;22.70;67.00
27016;DHT22;14557;0.000;0.000;2022-09-03T03:53:41;22.70;66.90
27016;DHT22;14557;0.000;0.000;2022-09-03T03:56:11;22.70;66.90
27016;DHT22;14557;0.000;0.000;2022-09-03T03:58:38;22.70;67.00
27016;DHT22;14557;0.000;0.000;2022-09-03T04:01:14;22.70;66.80
27016;DHT22;14557;0.000;0.000;2022-09-03T04:03:41;22.70;66.80
27016;DHT22;14557;0.000;0.000;2022-09-03T04:06:08;22.70;66.90
27016;DHT22;14557;0.000;0.000;2022-09-03T04:08:35;22.60;66.90
27016;DHT22;14557;0.000;0.000;2022-09-03T04:11:03;22.70;66.80
27016;DHT22;14557;0.000;0.000;2022-09-03T04:13:33;22.60;66.70
27016;DHT22;14557;0.000;0.000;2022-09-03T04:16:05;22.60;66.50
27016;DHT22;14557;0.000;0.000;2022-09-03T04:18:31;22.60;66.60
27016;DHT22;14557;0.000;0.000;2022-09-03T04:21:03;22.60;66.30
27016;DHT22;14557;0.000;0.000;2022-09-03T04:23:30;22.60;66.50
27016;DHT22;14557;0.000;0.000;2022-09-03T04:25:56;22.60;66.40
27016;DHT22;14557;0.000;0.000;2022-09-03T04:28:21;22.60;66.30
27016;DHT22;14557;0.000;0.000;2022-09-03T04:30:47;22.60;66.30
27016;DHT22;14557;0.000;0.000;2022-09-03T04:33:13;22.60;66.40
27016;DHT22;14557;0.000;0.000;2022-09-03T04:35:38;22.60;66.20
27016;DHT22;14557;0.000;0.000;2022-09-03T04:38:06;22.60;66.20
27016;DHT22;14557;0.000;0.000;2022-09-03T04:40:32;22.60;66.30
27016;DHT22;14557;0.000;0.000;2022-09-03T04:42:58;22.60;66.20
27016;DHT22;14557;0.000;0.000;2022-09-03T04:45:25;22.50;66.20
27016;DHT22;14557;0.000;0.000;2022-09-03T04:48:01;22.60;66.20
27016;DHT22;14557;0.000;0.000;2022-09-03T04:50:29;22.60;66.10
27016;DHT22;14557;0.000;0.000;2022-09-03T04:53:00;22.60;66.00
27016;DHT22;14557;0.000;0.000;2022-09-03T04:55:27;22.60;66.00
27016;DHT22;14557;0.000;0.000;2022-09-03T04:57:53;22.60;66.00
27016;DHT22;14557;0.000;0.000;2022-09-03T05:00:18;22.50;66.00
27016;DHT22;14557;0.000;0.000;2022-09-03T05:02:45;22.60;66.10
27016;DHT22;14557;0.000;0.000;2022-09-03T05:05:16;22.50;65.90
27016;DHT22;14557;0.000;0.000;2022-09-03T05:07:42;22.50;66.00
27016;DHT22;14557;0.000;0.000;2022-09-03T05:10:10;22.50;66.00
27016;DHT22;14557;0.000;0.000;2022-09-03T05:12:40;22.50;65.90
27016;DHT22;14557;0.000;0.000;2022-09-03T05:15:07;22.50;66.00
27016;DHT22;14557;0.000;0.000;2022-09-03T05:17:32;22.50;66.00
27016;DHT22;14557;0.000;0.000;2022-09-03T05:19:58;22.50;66.10
27016;DHT22;14557;0.000;0.000;2022-09-03T05:22:24;22.50;65.90
27016;DHT22;14557;0.000;0.000;2022-09-03T05:24:50;22.50;66.00
27016;DHT22;14557;0.000;0.000;2022-09-03T05:27:16;22.50;65.90
27016;DHT22;14557;0.000;0.000;2022-09-03T05:29:43;22.50;66.00
27016;DHT22;14557;0.000;0.000;2022-09-03T05:32:09;22.50;66.00
27016;DHT22;14557;0.000;0.000;2022-09-03T05:34:34;22.50;65.90
27016;DHT22;14557;0.000;0.000;2022-09-03T05:37:00;22.50;65.90
27016;DHT22;14557;0.000;0.000;2022-09-03T05:39:26;22.50;66.00
27016;DHT22;14557;0.000;0.000;2022-09-03T05:41:51;22.50;66.00
27016;DHT22;14557;0.000;0.000;2022-09-03T05:44:18;22.40;66.00
27016;DHT22;14557;0.000;0.000;2022-09-03T05:46:45;22.40;66.00
27016;DHT22;14557;0.000;0.000;2022-09-03T05:49:11;22.40;66.00
27016;DHT22;14557;0.000;0.000;2022-09-03T05:51:37;22.40;66.00
27016;DHT22;14557;0.000;0.000;2022-09-03T05:54:07;22.40;65.80
27016;DHT22;14557;0.000;0.000;2022-09-03T05:56:35;22.40;66.10
27016;DHT22;14557;0.000;0.000;2022-09-03T05:59:03;22.40;66.00
27016;DHT22;14557;0.000;0.000;2022-09-03T06:01:36;22.40;66.10
27016;DHT22;14557;0.000;0.000;2022-09-03T06:04:07;22.40;67.70
27016;DHT22;14557;0.000;0.000;2022-09-03T06:06:35;22.50;67.60
27016;DHT22;14557;0.000;0.000;2022-09-03T06:09:06;22.50;68.30
27016;DHT22;14557;0.000;0.000;2022-09-03T06:11:34;22.50;69.30
27016;DHT22;14557;0.000;0.000;2022-09-03T06:14:00;22.50;68.50
27016;DHT22;14557;0.000;0.000;2022-09-03T06:16:27;22.60;69.30
27016;DHT22;14557;0.000;0.000;2022-09-03T06:18:53;22.60;69.10
27016;DHT22;14557;0.000;0.000;2022-09-03T06:21:24;22.60;69.50
27016;DHT22;14557;0.000;0.000;2022-09-03T06:23:56;22.70;70.60
27016;DHT22;14557;0.000;0.000;2022-09-03T06:26:22;22.70;69.80
27016;DHT22;14557;0.000;0.000;2022-09-03T06:28:48;22.80;70.50
27016;DHT22;14557;0.000;0.000;2022-09-03T06:31:16;22.80;70.90
27016;DHT22;14557;0.000;0.000;2022-09-03T06:33:43;22.80;70.70
27016;DHT22;14557;0.000;0.000;2022-09-03T06:36:13;22.90;70.70
27016;DHT22;14557;0.000;0.000;2022-09-03T06:38:40;22.90;71.30
27016;DHT22;14557;0.000;0.000;2022-09-03T06:41:08;23.00;71.50
27016;DHT22;14557;0.000;0.000;2022-09-03T06:43:40;23.10;71.50
27016;DHT22;14557;0.000;0.000;2022-09-03T06:46:11;23.10;71.50
27016;DHT22;14557;0.000;0.000;2022-09-03T06:48:38;23.10;72.20
27016;DHT22;14557;0.000;0.000;2022-09-03T06:51:06;23.20;71.50
27016;DHT22;14557;0.000;0.000;2022-09-03T06:53:34;23.20;71.30
27016;DHT22;14557;0.000;0.000;2022-09-03T06:56:03;23.20;70.50
27016;DHT22;14557;0.000;0.000;2022-09-03T06:58:30;23.20;70.30
27016;DHT22;14557;0.000;0.000;2022-09-03T07:01:07;23.20;69.90
27016;DHT22;14557;0.000;0.000;2022-09-03T07:03:37;23.20;69.60
27016;DHT22;14557;0.000;0.000;2022-09-03T07:06:06;23.20;69.90
27016;DHT22;14557;0.000;0.000;2022-09-03T07:08:32;23.20;69.80
27016;DHT22;14557;0.000;0.000;2022-09-03T07:11:03;23.20;77.90
27016;DHT22;14557;0.000;0.000;2022-09-03T07:13:34;23.20;82.40
27016;DHT22;14557;0.000;0.000;2022-09-03T07:16:09;23.20;80.90
27016;DHT22;14557;0.000;0.000;2022-09-03T07:18:36;23.20;78.70
27016;DHT22;14557;0.000;0.000;2022-09-03T07:21:13;23.20;83.30
27016;DHT22;14557;0.000;0.000;2022-09-03T07:23:39;23.30;78.40
27016;DHT22;14557;0.000;0.000;2022-09-03T07:26:11;23.20;75.70
27016;DHT22;14557;0.000;0.000;2022-09-03T07:28:38;23.20;74.10
27016;DHT22;14557;0.000;0.000;2022-09-03T07:31:11;23.20;73.50
27016;DHT22;14557;0.000;0.000;2022-09-03T07:33:38;23.20;72.00
27016;DHT22;14557;0.000;0.000;2022-09-03T07:36:06;23.10;72.40
27016;DHT22;14557;0.000;0.000;2022-09-03T07:38:35;23.10;72.80
27016;DHT22;14557;0.000;0.000;2022-09-03T07:41:05;23.10;71.80
27016;DHT22;14557;0.000;0.000;2022-09-03T07:43:40;23.10;74.50
27016;DHT22;14557;0.000;0.000;2022-09-03T07:46:08;23.10;72.30
27016;DHT22;14557;0.000;0.000;2022-09-03T07:48:40;23.10;71.40
27016;DHT22;14557;0.000;0.000;2022-09-03T07:51:08;23.10;70.90
27016;DHT22;14557;0.000;0.000;2022-09-03T07:53:34;23.10;70.50
27016;DHT22;14557;0.000;0.000;2022-09-03T07:56:05;23.10;70.30
27016;DHT22;14557;0.000;0.000;2022-09-03T07:58:32;23.10;70.20
27016;DHT22;14557;0.000;0.000;2022-09-03T08:01:02;23.10;70.70
27016;DHT22;14557;0.000;0.000;2022-09-03T08:03:28;23.10;70.80
27016;DHT22;14557;0.000;0.000;2022-09-03T08:05:53;23.10;71.50
27016;DHT22;14557;0.000;0.000;2022-09-03T08:08:24;23.10;71.00
27016;DHT22;14557;0.000;0.000;2022-09-03T08:10:50;23.10;71.30
27016;DHT22;14557;0.000;0.000;2022-09-03T08:13:15;23.10;71.20
27016;DHT22;14557;0.000;0.000;2022-09-03T08:15:41;23.20;72.30
27016;DHT22;14557;0.000;0.000;2022-09-03T08:18:07;23.20;73.80
27016;DHT22;14557;0.000;0.000;2022-09-03T08:20:33;23.20;79.40
27016;DHT22;14557;0.000;0.000;2022-09-03T08:23:00;23.30;90.60
27016;DHT22;14557;0.000;0.000;2022-09-03T08:25:27;23.50;85.40
27016;DHT22;14557;0.000;0.000;2022-09-03T08:27:53;23.50;87.60
27016;DHT22;14557;0.000;0.000;2022-09-03T08:30:19;23.50;87.20
27016;DHT22;14557;0.000;0.000;2022-09-03T08:32:46;23.50;81.10
27016;DHT22;14557;0.000;0.000;2022-09-03T08:35:12;23.50;79.30
27016;DHT22;14557;0.000;0.000;2022-09-03T08:37:38;23.50;77.40
27016;DHT22;14557;0.000;0.000;2022-09-03T08:40:04;23.50;77.20
27016;DHT22;14557;0.000;0.000;2022-09-03T08:43:12;23.50;78.00
27016;DHT22;14557;0.000;0.000;2022-09-03T08:45:35;23.50;74.50
27016;DHT22;14557;0.000;0.000;2022-09-03T08:48:06;23.50;72.40
27016;DHT22;14557;0.000;0.000;2022-09-03T08:50:39;23.50;72.00
27016;DHT22;14557;0.000;0.000;2022-09-03T08:53:46;23.50;71.40
27016;DHT22;14557;0.000;0.000;2022-09-03T08:56:30;23.50;70.70
27016;DHT22;14557;0.000;0.000;2022-09-03T08:58:56;23.50;70.50
27016;DHT22;14557;0.000;0.000;2022-09-03T09:01:58;23.50;70.30
27016;DHT22;14557;0.000;0.000;2022-09-03T09:07:07;23.40;69.90
27016;DHT22;14557;0.000;0.000;2022-09-03T09:23:42;23.50;69.10
27016;DHT22;14557;0.000;0.000;2022-09-03T09:26:05;23.50;68.90
27016;DHT22;14557;0.000;0.000;2022-09-03T09:28:36;23.50;68.80
27016;DHT22;14557;0.000;0.000;2022-09-03T09:31:05;23.50;68.70
27016;DHT22;14557;0.000;0.000;2022-09-03T09:33:33;23.50;69.30
27016;DHT22;14557;0.000;0.000;2022-09-03T09:36:10;23.50;68.50
27016;DHT22;14557;0.000;0.000;2022-09-03T09:38:40;23.50;68.40
27016;DHT22;14557;0.000;0.000;2022-09-03T09:41:16;23.50;68.40
27016;DHT22;14557;0.000;0.000;2022-09-03T09:43:43;23.50;68.30
27016;DHT22;14557;0.000;0.000;2022-09-03T09:46:25;23.50;68.40
27016;DHT22;14557;0.000;0.000;2022-09-03T09:48:53;23.50;68.40
27016;DHT22;14557;0.000;0.000;2022-09-03T09:56:36;23.50;68.40
27016;DHT22;14557;0.000;0.000;2022-09-03T09:59:08;23.50;68.40
27016;DHT22;14557;0.000;0.000;2022-09-03T10:01:37;23.50;69.10
27016;DHT22;14557;0.000;0.000;2022-09-03T10:04:13;23.40;68.70
27016;DHT22;14557;0.000;0.000;2022-09-03T10:06:44;23.50;73.70
27016;DHT22;14557;0.000;0.000;2022-09-03T10:09:26;23.50;73.80
27016;DHT22;14557;0.000;0.000;2022-09-03T10:14:29;23.50;71.00
27016;DHT22;14557;0.000;0.000;2022-09-03T10:22:51;23.50;70.70
27016;DHT22;14557;0.000;0.000;2022-09-03T10:25:20;23.50;69.90
27016;DHT22;14557;0.000;0.000;2022-09-03T10:27:46;23.50;69.80
27016;DHT22;14557;0.000;0.000;2022-09-03T10:30:12;23.50;69.50
27016;DHT22;14557;0.000;0.000;2022-09-03T10:33:07;23.50;69.30
27016;DHT22;14557;0.000;0.000;2022-09-03T10:35:42;23.50;69.40
27016;DHT22;14557;0.000;0.000;2022-09-03T10:38:29;23.50;69.20
27016;DHT22;14557;0.000;0.000;2022-09-03T11:00:48;23.40;68.60
27016;DHT22;14557;0.000;0.000;2022-09-03T11:03:42;23.40;68.50
27016;DHT22;14557;0.000;0.000;2022-09-03T11:06:39;23.40;68.50
27016;DHT22;14557;0.000;0.000;2022-09-03T11:09:18;23.40;68.50
27016;DHT22;14557;0.000;0.000;2022-09-03T11:14:39;23.40;68.40
27016;DHT22;14557;0.000;0.000;2022-09-03T11:17:28;23.30;68.40
27016;DHT22;14557;0.000;0.000;2022-09-03T11:20:08;23.30;68.50
27016;DHT22;14557;0.000;0.000;2022-09-03T11:22:35;23.30;68.40
27016;DHT22;14557;0.000;0.000;2022-09-03T11:25:04;23.30;68.40
27016;DHT22;14557;0.000;0.000;2022-09-03T11:27:50;23.30;68.40
27016;DHT22;14557;0.000;0.000;2022-09-03T11:30:34;23.30;68.40
27016;DHT22;14557;0.000;0.000;2022-09-03T11:33:07;23.30;68.40
27016;DHT22;14557;0.000;0.000;2022-09-03T11:40:32;23.30;68.30
27016;DHT22;14557;0.000;0.000;2022-09-03T11:43:31;23.30;68.20
27016;DHT22;14557;0.000;0.000;2022-09-03T11:46:10;23.30;68.20
27016;DHT22;14557;0.000;0.000;2022-09-03T11:48:39;23.30;69.10
27016;DHT22;14557;0.000;0.000;2022-09-03T11:54:22;23.30;68.30
27016;DHT22;14557;0.000;0.000;2022-09-03T11:56:49;23.30;68.30
27016;DHT22;14557;0.000;0.000;2022-09-03T11:59:23;23.20;68.30
27016;DHT22;14557;0.000;0.000;2022-09-03T12:02:09;23.20;68.30
27016;DHT22;14557;0.000;0.000;2022-09-03T12:13:49;23.20;68.30
27016;DHT22;14557;0.000;0.000;2022-09-03T12:16:50;23.20;68.40
27016;DHT22;14557;0.000;0.000;2022-09-03T12:22:13;23.20;68.40
27016;DHT22;14557;0.000;0.000;2022-09-03T12:24:40;23.20;68.40
27016;DHT22;14557;0.000;0.000;2022-09-03T12:27:17;23.10;68.50
27016;DHT22;14557;0.000;0.000;2022-09-03T12:32:20;23.10;68.40
27016;DHT22;14557;0.000;0.000;2022-09-03T12:34:46;23.10;68.50
27016;DHT22;14557;0.000;0.000;2022-09-03T12:37:20;23.10;68.60
27016;DHT22;14557;0.000;0.000;2022-09-03T12:39:55;23.00;68.70
27016;DHT22;14557;0.000;0.000;2022-09-03T12:42:31;23.10;68.50
27016;DHT22;14557;0.000;0.000;2022-09-03T12:45:07;23.10;68.60
27016;DHT22;14557;0.000;0.000;2022-09-03T12:47:38;23.00;68.70
27016;DHT22;14557;0.000;0.000;2022-09-03T12:50:07;23.00;68.70
27016;DHT22;14557;0.000;0.000;2022-09-03T12:55:12;23.00;69.50
27016;DHT22;14557;0.000;0.000;2022-09-03T12:57:48;23.00;68.70
27016;DHT22;14557;0.000;0.000;2022-09-03T13:00:17;23.00;68.70
27016;DHT22;14557;0.000;0.000;2022-09-03T13:05:20;23.00;68.70
27016;DHT22;14557;0.000;0.000;2022-09-03T13:07:53;23.00;68.70
27016;DHT22;14557;0.000;0.000;2022-09-03T13:10:30;23.00;68.80
27016;DHT22;14557;0.000;0.000;2022-09-03T13:13:00;23.00;68.80
27016;DHT22;14557;0.000;0.000;2022-09-03T13:15:27;23.00;68.80
27016;DHT22;14557;0.000;0.000;2022-09-03T13:18:15;23.00;68.80
27016;DHT22;14557;0.000;0.000;2022-09-03T13:21:06;23.00;68.90
27016;DHT22;14557;0.000;0.000;2022-09-03T13:32:49;23.00;68.80
27016;DHT22;14557;0.000;0.000;2022-09-03T13:40:55;23.00;69.00
27016;DHT22;14557;0.000;0.000;2022-09-03T13:43:41;22.90;70.70
27016;DHT22;14557;0.000;0.000;2022-09-03T13:46:10;22.90;70.80
27016;DHT22;14557;0.000;0.000;2022-09-03T13:48:42;22.90;70.90
27016;DHT22;14557;0.000;0.000;2022-09-03T13:51:50;23.00;70.30
27016;DHT22;14557;0.000;0.000;2022-09-03T13:54:30;23.00;70.20
27016;DHT22;14557;0.000;0.000;2022-09-03T13:57:38;23.00;71.30
27016;DHT22;14557;0.000;0.000;2022-09-03T14:00:12;23.00;71.10
27016;DHT22;14557;0.000;0.000;2022-09-03T14:02:52;23.00;70.30
27016;DHT22;14557;0.000;0.000;2022-09-03T14:05:40;23.00;70.10
27016;DHT22;14557;0.000;0.000;2022-09-03T14:22:17;23.00;69.50
27016;DHT22;14557;0.000;0.000;2022-09-03T14:24:51;22.90;69.40
27016;DHT22;14557;0.000;0.000;2022-09-03T14:27:26;23.00;69.50
27016;DHT22;14557;0.000;0.000;2022-09-03T14:30:01;22.90;70.20
27016;DHT22;14557;0.000;0.000;2022-09-03T14:36:44;22.90;69.40
27016;DHT22;14557;0.000;0.000;2022-09-03T14:38:45;22.90;69.40
27016;DHT22;14557;0.000;0.000;2022-09-03T14:44:19;22.90;69.30
27016;DHT22;14557;0.000;0.000;2022-09-03T14:47:05;22.80;69.30
27016;DHT22;14557;0.000;0.000;2022-09-03T15:00:07;22.80;69.20
27016;DHT22;14557;0.000;0.000;2022-09-03T15:08:07;22.80;69.30
27016;DHT22;14557;0.000;0.000;2022-09-03T15:10:51;22.80;69.10
27016;DHT22;14557;0.000;0.000;2022-09-03T15:13:20;22.70;69.80
27016;DHT22;14557;0.000;0.000;2022-09-03T15:24:42;22.70;70.30
27016;DHT22;14557;0.000;0.000;2022-09-03T15:30:05;22.70;69.60
27016;DHT22;14557;0.000;0.000;2022-09-03T15:35:24;22.70;69.40
27016;DHT22;14557;0.000;0.000;2022-09-03T15:37:57;22.70;69.60
27016;DHT22;14557;0.000;0.000;2022-09-03T15:40:49;22.70;69.50
27016;DHT22;14557;0.000;0.000;2022-09-03T15:43:25;22.70;69.40
27016;DHT22;14557;0.000;0.000;2022-09-03T15:45:55;22.80;69.50
27016;DHT22;14557;0.000;0.000;2022-09-03T15:48:31;22.70;69.50
27016;DHT22;14557;0.000;0.000;2022-09-03T15:51:17;22.70;69.50
27016;DHT22;14557;0.000;0.000;2022-09-03T15:53:59;22.70;69.50
27016;DHT22;14557;0.000;0.000;2022-09-03T15:59:27;22.70;69.50
27016;DHT22;14557;0.000;0.000;2022-09-03T16:02:04;22.80;69.50
27016;DHT22;14557;0.000;0.000;2022-09-03T16:04:55;22.80;69.60
27016;DHT22;14557;0.000;0.000;2022-09-03T16:15:27;22.70;69.60
27016;DHT22;14557;0.000;0.000;2022-09-03T16:26:46;22.70;69.80
27016;DHT22;14557;0.000;0.000;2022-09-03T16:29:16;22.70;70.00
27016;DHT22;14557;0.000;0.000;2022-09-03T16:40:18;22.70;70.20
27016;DHT22;14557;0.000;0.000;2022-09-03T16:43:19;22.60;70.10
27016;DHT22;14557;0.000;0.000;2022-09-03T16:51:14;22.70;71.30
27016;DHT22;14557;0.000;0.000;2022-09-03T17:15:15;22.90;77.10
27016;DHT22;14557;0.000;0.000;2022-09-03T17:37:41;23.00;72.30
27016;DHT22;14557;0.000;0.000;2022-09-03T17:48:29;22.90;71.00
27016;DHT22;14557;0.000;0.000;2022-09-03T17:51:04;22.90;71.30
27016;DHT22;14557;0.000;0.000;2022-09-03T17:53:43;23.00;71.40
27016;DHT22;14557;0.000;0.000;2022-09-03T17:56:24;22.90;71.60
27016;DHT22;14557;0.000;0.000;2022-09-03T18:01:54;23.00;71.10
27016;DHT22;14557;0.000;0.000;2022-09-03T18:04:45;22.90;70.90
27016;DHT22;14557;0.000;0.000;2022-09-03T18:12:32;22.90;70.60
27016;DHT22;14557;0.000;0.000;2022-09-03T18:18:07;23.00;70.60
27016;DHT22;14557;0.000;0.000;2022-09-03T18:20:47;23.00;70.40
27016;DHT22;14557;0.000;0.000;2022-09-03T18:23:44;23.00;74.90
27016;DHT22;14557;0.000;0.000;2022-09-03T18:26:33;23.00;78.30
27016;DHT22;14557;0.000;0.000;2022-09-03T18:32:26;23.00;76.50
27016;DHT22;14557;0.000;0.000;2022-09-03T18:35:12;23.00;77.20
27016;DHT22;14557;0.000;0.000;2022-09-03T18:37:56;23.00;75.20
27016;DHT22;14557;0.000;0.000;2022-09-03T18:41:05;23.00;75.20
27016;DHT22;14557;0.000;0.000;2022-09-03T18:44:05;23.10;75.30
27016;DHT22;14557;0.000;0.000;2022-09-03T18:46:58;23.10;74.00
27016;DHT22;14557;0.000;0.000;2022-09-03T18:52:56;23.20;74.20
27016;DHT22;14557;0.000;0.000;2022-09-03T19:01:33;23.40;74.30
27016;DHT22;14557;0.000;0.000;2022-09-03T19:13:38;23.50;71.60
27016;DHT22;14557;0.000;0.000;2022-09-03T19:19:44;23.60;76.60
27016;DHT22;14557;0.000;0.000;2022-09-03T19:22:38;23.70;73.90
27016;DHT22;14557;0.000;0.000;2022-09-03T19:25:24;23.70;74.60
27016;DHT22;14557;0.000;0.000;2022-09-03T19:28:21;23.70;75.20
27016;DHT22;14557;0.000;0.000;2022-09-03T19:49:07;23.90;76.30
27016;DHT22;14557;0.000;0.000;2022-09-03T19:52:28;23.90;76.80
27016;DHT22;14557;0.000;0.000;2022-09-03T19:55:18;24.00;77.30
27016;DHT22;14557;0.000;0.000;2022-09-03T19:58:04;23.90;75.20
27016;DHT22;14557;0.000;0.000;2022-09-03T20:00:48;23.90;72.90
27016;DHT22;14557;0.000;0.000;2022-09-03T20:03:33;23.80;71.90
27016;DHT22;14557;0.000;0.000;2022-09-03T20:06:19;23.80;71.00
27016;DHT22;14557;0.000;0.000;2022-09-03T20:09:08;23.80;70.80
27016;DHT22;14557;0.000;0.000;2022-09-03T20:11:58;23.80;70.30
27016;DHT22;14557;0.000;0.000;2022-09-03T20:14:35;23.80;70.00
27016;DHT22;14557;0.000;0.000;2022-09-03T20:17:20;23.70;69.70
27016;DHT22;14557;0.000;0.000;2022-09-03T20:19:58;23.70;69.20
27016;DHT22;14557;0.000;0.000;2022-09-03T20:25:18;23.70;71.10
27016;DHT22;14557;0.000;0.000;2022-09-03T20:31:21;23.70;79.70
27016;DHT22;14557;0.000;0.000;2022-09-03T20:34:12;23.80;82.40
27016;DHT22;14557;0.000;0.000;2022-09-03T20:42:16;23.70;79.40
27016;DHT22;14557;0.000;0.000;2022-09-03T20:47:55;23.70;77.30
27016;DHT22;14557;0.000;0.000;2022-09-03T20:51:21;23.70;76.40
27016;DHT22;14557;0.000;0.000;2022-09-03T20:53:51;23.70;75.40
27016;DHT22;14557;0.000;0.000;2022-09-03T21:16:06;23.60;81.40
27016;DHT22;14557;0.000;0.000;2022-09-03T21:21:15;23.60;75.10
27016;DHT22;14557;0.000;0.000;2022-09-03T21:23:44;23.60;75.70
27016;DHT22;14557;0.000;0.000;2022-09-03T21:26:35;23.60;78.90
27016;DHT22;14557;0.000;0.000;2022-09-03T21:32:07;23.50;75.20
27016;DHT22;14557;0.000;0.000;2022-09-03T21:37:05;23.50;74.80
27016;DHT22;14557;0.000;0.000;2022-09-03T21:39:55;23.50;74.20
27016;DHT22;14557;0.000;0.000;2022-09-03T21:42:45;23.50;74.00
27016;DHT22;14557;0.000;0.000;2022-09-03T21:45:33;23.50;73.60
27016;DHT22;14557;0.000;0.000;2022-09-03T21:48:06;23.50;73.00
27016;DHT22;14557;0.000;0.000;2022-09-03T21:53:31;23.50;73.10
27016;DHT22;14557;0.000;0.000;2022-09-03T21:56:19;23.50;72.70
27016;DHT22;14557;0.000;0.000;2022-09-03T22:04:02;23.40;71.90
27016;DHT22;14557;0.000;0.000;2022-09-03T22:06:37;23.40;71.20
27016;DHT22;14557;0.000;0.000;2022-09-03T22:09:19;23.40;70.80
27016;DHT22;14557;0.000;0.000;2022-09-03T22:11:57;23.30;70.80
27016;DHT22;14557;0.000;0.000;2022-09-03T22:14:27;23.30;70.30
27016;DHT22;14557;0.000;0.000;2022-09-03T22:17:05;23.30;70.30
27016;DHT22;14557;0.000;0.000;2022-09-03T22:19:34;23.30;70.10
27016;DHT22;14557;0.000;0.000;2022-09-03T22:22:07;23.30;70.30
27016;DHT22;14557;0.000;0.000;2022-09-03T22:24:59;23.20;70.60
27016;DHT22;14557;0.000;0.000;2022-09-03T22:30:17;23.20;70.00
27016;DHT22;14557;0.000;0.000;2022-09-03T22:32:49;23.20;70.20
27016;DHT22;14557;0.000;0.000;2022-09-03T22:41:23;23.10;69.60
27016;DHT22;14557;0.000;0.000;2022-09-03T22:44:05;23.10;69.40
27016;DHT22;14557;0.000;0.000;2022-09-03T22:49:41;23.10;69.70
27016;DHT22;14557;0.000;0.000;2022-09-03T22:55:13;23.10;70.80
27016;DHT22;14557;0.000;0.000;2022-09-03T22:57:49;23.00;70.70
27016;DHT22;14557;0.000;0.000;2022-09-03T23:00:16;23.10;71.70
27016;DHT22;14557;0.000;0.000;2022-09-03T23:02:46;23.00;70.90
27016;DHT22;14557;0.000;0.000;2022-09-03T23:05:31;23.00;71.00
27016;DHT22;14557;0.000;0.000;2022-09-03T23:13:33;23.00;70.80
27016;DHT22;14557;0.000;0.000;2022-09-03T23:16:07;22.90;70.90
27016;DHT22;14557;0.000;0.000;2022-09-03T23:18:35;22.90;71.00